Terminal Aerodrome Forecast
Issued by NWS El Paso, TX

Home | Current Version | Previous Version | Text Only | Print | Product List | Glossary On
Versions: 1 2 3 4 5 6 7 8 9 10 11 12 13
710
FTUS44 KEPZ 081136
TAFELP
TAF
KELP 081136Z 0812/0912 07013KT P6SM SCT070 OVC200
     FM081500 09011KT P6SM SCT030 SCT250
     FM090000 12008KT P6SM SCT250=

USA.gov is the U.S. government's official web portal to all federal, state and local government web resources and services.